Terminal Aerodrome Forecast
Issued by NWS

Home | Current Version | Previous Version | Text Only | Print | Product List | Glossary On
Versions: 1 2 3 4 5 6 7 8 9 10 11 12 13 14 15 16 17 18 19 20 21 22 23 24 25 26 27
000
FTUS41 KBUF 061122
TAFIAG
TAF
KIAG 061122Z 0612/0712 VRB03KT P6SM FEW250
     FM061600 17004KT P6SM BKN250
     FM061900 15006KT P6SM BKN110
     FM070000 18004KT 6SM BR VCSH BKN045
     FM070200 17005KT P6SM BKN070
     FM070900 19008KT P6SM SCT110=

USA.gov is the U.S. government's official web portal to all federal, state and local government web resources and services.